createdAt,value
2018-09-05T00:01:23.377Z,99.90
2018-09-05T00:03:52.523Z,99.90
2018-09-05T00:06:21.815Z,99.90
2018-09-05T00:08:51.094Z,99.90
2018-09-05T00:11:20.917Z,99.90
2018-09-05T00:13:49.566Z,99.90
2018-09-05T00:16:19.291Z,99.90
2018-09-05T00:18:48.369Z,99.90
2018-09-05T00:21:17.777Z,99.90
2018-09-05T00:23:46.885Z,99.90
2018-09-05T00:26:16.002Z,99.90
2018-09-05T00:28:45.170Z,99.90
2018-09-05T00:31:14.315Z,99.90
2018-09-05T00:33:43.438Z,99.90
2018-09-05T00:36:12.617Z,99.90
2018-09-05T00:38:41.806Z,99.90
2018-09-05T00:41:11.006Z,99.90
2018-09-05T00:43:40.205Z,99.90
2018-09-05T00:46:09.326Z,99.90
2018-09-05T00:48:38.453Z,99.90
2018-09-05T00:51:08.058Z,99.90
2018-09-05T00:53:37.210Z,99.90
2018-09-05T00:56:06.768Z,99.90
2018-09-05T00:58:35.968Z,99.90
2018-09-05T01:01:05.113Z,99.90
2018-09-05T01:03:34.334Z,99.90
2018-09-05T01:06:03.492Z,99.90
2018-09-05T01:08:32.618Z,99.90
2018-09-05T01:11:01.796Z,99.90
2018-09-05T01:13:31.353Z,99.90
2018-09-05T01:16:00.530Z,99.90
2018-09-05T01:18:29.656Z,99.90
2018-09-05T01:20:58.887Z,99.90
2018-09-05T01:23:28.039Z,99.90
2018-09-05T01:25:57.568Z,99.90
2018-09-05T01:28:26.913Z,99.90
2018-09-05T01:30:56.513Z,99.90
2018-09-05T01:33:25.669Z,99.90
2018-09-05T01:36:00.041Z,99.90
2018-09-05T01:38:29.166Z,99.90
2018-09-05T01:40:58.314Z,99.90
2018-09-05T01:43:27.478Z,99.90
2018-09-05T01:45:56.635Z,99.90
2018-09-05T01:48:25.789Z,99.90
2018-09-05T01:50:54.941Z,99.90
2018-09-05T01:53:27.053Z,99.90
2018-09-05T01:55:56.750Z,99.90
2018-09-05T01:58:25.910Z,99.90
2018-09-05T02:00:55.033Z,99.90
2018-09-05T02:03:24.954Z,99.90
2018-09-05T02:05:54.130Z,99.90
2018-09-05T02:08:23.266Z,99.90
2018-09-05T02:10:52.785Z,99.90
2018-09-05T02:13:22.013Z,99.90
2018-09-05T02:15:51.222Z,99.90
2018-09-05T02:18:20.437Z,99.90
2018-09-05T02:20:49.639Z,99.90
2018-09-05T02:23:18.870Z,99.90
2018-09-05T02:25:48.113Z,99.90
2018-09-05T02:28:17.569Z,99.90
2018-09-05T02:30:47.493Z,99.90
2018-09-05T02:33:16.725Z,99.90
2018-09-05T02:35:45.934Z,99.90
2018-09-05T02:38:15.154Z,99.90
2018-09-05T02:40:44.479Z,99.90
2018-09-05T02:43:18.438Z,99.90
2018-09-05T02:45:48.538Z,99.90
2018-09-05T02:48:18.117Z,99.90
2018-09-05T02:50:47.302Z,99.90
2018-09-05T02:53:16.666Z,99.90
2018-09-05T02:55:51.063Z,99.90
2018-09-05T02:58:20.558Z,99.90
2018-09-05T03:00:49.745Z,99.90
2018-09-05T03:03:18.893Z,99.90
2018-09-05T03:05:48.237Z,99.90
2018-09-05T03:08:17.446Z,99.90
2018-09-05T03:10:46.665Z,99.90
2018-09-05T03:13:16.253Z,99.90
2018-09-05T03:15:45.414Z,99.90
2018-09-05T03:18:14.609Z,99.90
2018-09-05T03:20:44.019Z,99.90
2018-09-05T03:23:13.135Z,99.90
2018-09-05T03:25:45.301Z,99.90
2018-09-05T03:28:14.418Z,99.90
2018-09-05T03:30:43.787Z,99.90
2018-09-05T03:33:12.919Z,99.90
2018-09-05T03:35:42.046Z,99.90
2018-09-05T03:38:11.182Z,99.90
2018-09-05T03:40:40.311Z,99.90
2018-09-05T03:43:18.006Z,99.90
2018-09-05T03:45:49.007Z,99.90
2018-09-05T03:48:29.510Z,99.90
2018-09-05T03:51:07.402Z,99.90
2018-09-05T03:53:38.575Z,99.90
2018-09-05T03:56:08.388Z,99.90
2018-09-05T03:58:38.373Z,99.90
2018-09-05T04:01:08.265Z,99.90
2018-09-05T04:03:38.095Z,99.90
2018-09-05T04:06:07.802Z,99.90
2018-09-05T04:08:37.212Z,99.90
2018-09-05T04:11:06.470Z,99.90
2018-09-05T04:13:35.816Z,99.90
2018-09-05T04:16:05.294Z,99.90
2018-09-05T04:18:34.660Z,99.90
2018-09-05T04:21:03.954Z,99.90
2018-09-05T04:23:37.386Z,99.90
2018-09-05T04:26:06.674Z,99.90
2018-09-05T04:28:36.460Z,99.90
2018-09-05T04:31:05.826Z,99.90
2018-09-05T04:33:35.471Z,99.90
2018-09-05T04:36:04.716Z,99.90
2018-09-05T04:38:34.090Z,99.90
2018-09-05T04:41:03.583Z,99.90
2018-09-05T04:43:33.368Z,99.90
2018-09-05T04:46:03.170Z,99.90
2018-09-05T04:48:32.465Z,99.90
2018-09-05T04:51:01.802Z,99.90
2018-09-05T04:53:32.309Z,99.90
2018-09-05T04:56:01.517Z,99.90
2018-09-05T04:58:30.683Z,99.90
2018-09-05T05:00:59.806Z,99.90
2018-09-05T05:03:28.979Z,99.90
2018-09-05T05:05:58.137Z,99.90
2018-09-05T05:08:27.320Z,99.90
2018-09-05T05:10:56.531Z,99.90
2018-09-05T05:13:25.714Z,99.90
2018-09-05T05:15:54.920Z,99.90
2018-09-05T05:18:24.330Z,99.90
2018-09-05T05:20:53.498Z,99.90
2018-09-05T05:23:23.093Z,99.90
2018-09-05T05:25:52.286Z,99.90
2018-09-05T05:28:21.446Z,99.90
2018-09-05T05:30:50.630Z,99.90
2018-09-05T05:33:19.799Z,99.90
2018-09-05T05:35:49.131Z,99.90
2018-09-05T05:38:18.564Z,99.90
2018-09-05T05:40:48.490Z,99.90
2018-09-05T05:43:17.798Z,99.90
2018-09-05T05:45:47.114Z,99.90
2018-09-05T05:48:16.523Z,99.90
2018-09-05T05:50:45.811Z,99.90
2018-09-05T05:53:15.238Z,99.90
2018-09-05T05:55:44.628Z,99.90
2018-09-05T05:58:13.974Z,99.90
2018-09-05T06:00:43.724Z,99.90
2018-09-05T06:03:13.626Z,99.90
2018-09-05T06:05:41.931Z,99.90
2018-09-05T06:08:11.972Z,99.90
2018-09-05T06:10:41.144Z,99.90
2018-09-05T06:13:10.274Z,99.90
2018-09-05T06:15:39.531Z,99.90
2018-09-05T06:18:09.262Z,99.90
2018-09-05T06:20:38.389Z,99.90
2018-09-05T06:23:07.548Z,99.90
2018-09-05T06:25:36.770Z,99.90
2018-09-05T06:28:05.989Z,99.90
2018-09-05T06:30:35.227Z,99.90
2018-09-05T06:33:05.494Z,99.90
2018-09-05T06:35:33.560Z,99.90
2018-09-05T06:38:02.723Z,99.90
2018-09-05T06:40:32.000Z,99.90
2018-09-05T06:43:01.178Z,99.90
2018-09-05T06:45:30.446Z,99.90
2018-09-05T06:47:59.602Z,99.90
2018-09-05T06:50:28.787Z,99.90
2018-09-05T06:52:57.947Z,99.90
2018-09-05T06:55:27.085Z,99.90
2018-09-05T06:57:56.234Z,99.90
2018-09-05T07:00:25.746Z,99.90
2018-09-05T07:02:55.066Z,99.90
2018-09-05T07:05:24.206Z,99.90
2018-09-05T07:07:53.342Z,99.90
2018-09-05T07:10:23.260Z,99.90
2018-09-05T07:12:52.374Z,99.90
2018-09-05T07:15:21.543Z,99.90
2018-09-05T07:17:50.679Z,99.90
2018-09-05T07:20:19.834Z,99.90
2018-09-05T07:22:48.961Z,99.90
2018-09-05T07:25:18.078Z,99.90
2018-09-05T07:27:47.667Z,99.90
2018-09-05T07:30:17.579Z,99.90
2018-09-05T07:32:47.140Z,99.90
2018-09-05T07:35:16.321Z,99.90
2018-09-05T07:37:45.502Z,99.90
2018-09-05T07:40:14.673Z,99.90
2018-09-05T07:42:44.042Z,99.90
2018-09-05T07:45:14.473Z,99.90
2018-09-05T07:47:43.859Z,99.90
2018-09-05T07:50:13.162Z,99.90
2018-09-05T07:52:42.335Z,99.90
2018-09-05T07:55:11.495Z,99.90
2018-09-05T07:57:40.718Z,99.90
2018-09-05T08:00:09.900Z,99.90
2018-09-05T08:02:39.091Z,99.90
2018-09-05T08:05:08.234Z,99.90
2018-09-05T08:07:37.438Z,99.90
2018-09-05T08:10:06.575Z,99.90
2018-09-05T08:12:36.238Z,99.90
2018-09-05T08:15:05.350Z,99.90
2018-09-05T08:17:34.504Z,99.90
2018-09-05T08:20:03.642Z,99.90
2018-09-05T08:22:32.795Z,99.90
2018-09-05T08:25:02.562Z,99.90
2018-09-05T08:27:31.804Z,99.90
2018-09-05T08:30:00.935Z,99.90
2018-09-05T08:32:30.044Z,98.80
2018-09-05T08:34:59.321Z,99.80
2018-09-05T08:37:28.899Z,99.90
2018-09-05T08:39:57.847Z,99.90
2018-09-05T08:42:31.137Z,99.90
2018-09-05T08:45:00.944Z,99.90
2018-09-05T08:47:30.057Z,99.40
2018-09-05T08:50:00.052Z,98.10
2018-09-05T08:52:29.486Z,96.40
2018-09-05T08:54:58.853Z,96.10
2018-09-05T08:57:27.993Z,96.70
2018-09-05T08:59:57.138Z,95.60
2018-09-05T09:02:27.290Z,95.20
2018-09-05T09:04:56.501Z,95.50
2018-09-05T09:07:25.591Z,97.70
2018-09-05T09:09:55.002Z,96.40
2018-09-05T09:12:24.114Z,94.50
2018-09-05T09:14:53.355Z,93.60
2018-09-05T09:17:22.531Z,93.00
2018-09-05T09:19:51.646Z,92.40
2018-09-05T09:22:20.762Z,91.60
2018-09-05T09:24:50.067Z,91.10
2018-09-05T09:27:19.194Z,90.00
2018-09-05T09:29:48.338Z,90.10
2018-09-05T09:32:17.512Z,91.10
2018-09-05T09:34:46.710Z,91.30
2018-09-05T09:37:15.887Z,93.70
2018-09-05T09:39:45.598Z,93.40
2018-09-05T09:42:14.806Z,92.40
2018-09-05T09:44:44.594Z,91.00
2018-09-05T09:47:13.982Z,90.40
2018-09-05T09:49:43.326Z,89.90
2018-09-05T09:52:17.882Z,87.80
2018-09-05T09:54:47.310Z,85.50
2018-09-05T09:57:16.465Z,86.00
2018-09-05T09:59:45.677Z,87.50
2018-09-05T10:02:20.410Z,87.80
2018-09-05T10:04:54.875Z,89.00
2018-09-05T10:07:29.131Z,86.00
2018-09-05T10:10:03.740Z,83.50
2018-09-05T10:12:37.753Z,81.70
2018-09-05T10:15:17.478Z,78.50
2018-09-05T10:17:50.794Z,77.50
2018-09-05T10:20:19.969Z,81.80
2018-09-05T10:22:49.550Z,80.00
2018-09-05T10:25:18.766Z,79.30
2018-09-05T10:27:48.004Z,77.20
2018-09-05T10:30:17.140Z,76.90
2018-09-05T10:32:47.019Z,77.30
2018-09-05T10:35:16.282Z,78.40
2018-09-05T10:37:45.450Z,81.00
2018-09-05T10:40:14.598Z,82.70
2018-09-05T10:42:43.795Z,83.40
2018-09-05T10:45:12.981Z,83.40
2018-09-05T10:47:46.999Z,79.50
2018-09-05T10:50:16.295Z,77.30
2018-09-05T10:52:46.346Z,74.10
2018-09-05T10:55:16.138Z,72.20
2018-09-05T10:57:45.342Z,75.50
2018-09-05T11:00:14.518Z,74.70
2018-09-05T11:02:43.786Z,71.40
2018-09-05T11:05:12.974Z,70.00
2018-09-05T11:07:42.101Z,71.50
2018-09-05T11:10:11.534Z,72.10
2018-09-05T11:12:40.714Z,75.70
2018-09-05T11:15:09.870Z,78.80
2018-09-05T11:17:38.999Z,80.90
2018-09-05T11:20:10.858Z,80.80
2018-09-05T11:22:40.556Z,77.50
2018-09-05T11:25:09.714Z,77.20
2018-09-05T11:27:38.869Z,79.20
2018-09-05T11:30:08.043Z,77.50
2018-09-05T11:32:37.584Z,79.10
2018-09-05T11:35:06.742Z,80.90
2018-09-05T11:37:35.923Z,80.80
2018-09-05T11:40:05.241Z,81.10
2018-09-05T11:42:34.421Z,79.90
2018-09-05T11:45:03.637Z,78.40
2018-09-05T11:47:32.782Z,74.30
2018-09-05T11:50:01.967Z,77.10
2018-09-05T11:52:31.200Z,76.30
2018-09-05T11:55:00.403Z,78.00
2018-09-05T11:57:29.192Z,74.70
2018-09-05T11:59:58.361Z,75.20
2018-09-05T12:02:27.496Z,73.50
2018-09-05T12:04:56.649Z,74.90
2018-09-05T12:07:25.767Z,74.70
2018-09-05T12:09:54.894Z,73.80
2018-09-05T12:12:24.022Z,72.70
2018-09-05T12:14:54.364Z,74.00
2018-09-05T12:17:23.654Z,75.70
2018-09-05T12:19:52.780Z,72.10
2018-09-05T12:22:21.946Z,70.30
2018-09-05T12:24:51.074Z,69.10
2018-09-05T12:27:20.178Z,68.50
2018-09-05T12:29:49.334Z,69.00
2018-09-05T12:32:19.170Z,70.50
2018-09-05T12:34:48.298Z,72.00
2018-09-05T12:37:17.448Z,73.20
2018-09-05T12:39:46.546Z,72.00
2018-09-05T12:42:15.748Z,71.50
2018-09-05T12:44:45.087Z,71.70
2018-09-05T12:47:14.221Z,74.90
2018-09-05T12:49:43.608Z,74.90
2018-09-05T12:52:12.770Z,76.50
2018-09-05T12:54:41.914Z,78.30
2018-09-05T12:57:11.758Z,77.60
2018-09-05T12:59:41.109Z,79.40
2018-09-05T13:02:10.654Z,80.60
2018-09-05T13:04:39.958Z,81.40
2018-09-05T13:07:09.507Z,79.30
2018-09-05T13:09:38.861Z,78.30
2018-09-05T13:12:08.864Z,76.70
2018-09-05T13:14:38.186Z,75.00
2018-09-05T13:17:07.554Z,71.10
2018-09-05T13:19:36.906Z,67.20
2018-09-05T13:22:06.545Z,66.70
2018-09-05T13:24:34.670Z,66.00
2018-09-05T13:27:04.034Z,67.90
2018-09-05T13:29:33.271Z,67.90
2018-09-05T13:32:03.697Z,68.40
2018-09-05T13:34:32.828Z,67.40
2018-09-05T13:37:01.986Z,66.50
2018-09-05T13:39:31.128Z,65.10
2018-09-05T13:42:00.249Z,63.10
2018-09-05T13:44:29.450Z,63.30
2018-09-05T13:46:58.583Z,64.00
2018-09-05T13:49:27.719Z,65.50
2018-09-05T13:52:02.153Z,68.50
2018-09-05T13:54:32.074Z,68.50
2018-09-05T13:57:01.324Z,66.40
2018-09-05T13:59:30.998Z,66.30
2018-09-05T14:02:00.572Z,65.80
2018-09-05T14:04:29.692Z,63.30
2018-09-05T14:06:58.812Z,62.30
2018-09-05T14:09:27.927Z,62.80
2018-09-05T14:11:57.034Z,63.00
2018-09-05T14:14:32.946Z,64.40
2018-09-05T14:17:02.485Z,67.00
2018-09-05T14:19:31.590Z,64.40
2018-09-05T14:22:00.726Z,64.10
2018-09-05T14:24:29.918Z,64.60
2018-09-05T14:26:59.164Z,65.00
2018-09-05T14:29:28.377Z,64.60
2018-09-05T14:31:57.570Z,66.10
2018-09-05T14:34:26.243Z,67.20
2018-09-05T14:36:55.774Z,69.40
2018-09-05T14:39:24.911Z,71.50
2018-09-05T14:41:54.039Z,70.90
2018-09-05T14:44:23.179Z,70.40
2018-09-05T14:46:52.285Z,69.50
2018-09-05T14:49:21.422Z,68.00
2018-09-05T14:51:51.435Z,69.80
2018-09-05T14:54:20.641Z,70.30
2018-09-05T14:56:50.231Z,69.90
2018-09-05T14:59:19.347Z,68.60
2018-09-05T15:01:49.961Z,67.20
2018-09-05T15:04:19.173Z,66.60
2018-09-05T15:06:48.788Z,67.90
2018-09-05T15:09:17.479Z,67.40
2018-09-05T15:11:46.609Z,64.20
2018-09-05T15:14:15.749Z,64.30
2018-09-05T15:16:44.927Z,65.40
2018-09-05T15:19:16.651Z,65.70
2018-09-05T15:21:48.377Z,67.90
2018-09-05T15:24:21.712Z,68.00
2018-09-05T15:26:50.914Z,67.50
2018-09-05T15:29:20.038Z,68.00
2018-09-05T15:31:49.174Z,67.80
2018-09-05T15:34:18.334Z,67.90
2018-09-05T15:36:47.520Z,71.40
2018-09-05T15:39:16.695Z,73.00
2018-09-05T15:41:45.870Z,71.90
2018-09-05T15:44:15.044Z,72.60
2018-09-05T15:46:44.250Z,73.60
2018-09-05T15:49:13.350Z,74.00
2018-09-05T15:51:43.726Z,74.80
2018-09-05T15:54:12.926Z,75.90
2018-09-05T15:56:42.034Z,76.00
2018-09-05T15:59:11.264Z,75.70
2018-09-05T16:01:42.539Z,74.70
2018-09-05T16:04:13.851Z,73.40
2018-09-05T16:06:43.674Z,74.90
2018-09-05T16:09:12.511Z,75.80
2018-09-05T16:11:41.850Z,74.80
2018-09-05T16:14:11.146Z,74.50
2018-09-05T16:16:40.254Z,74.30
2018-09-05T16:19:09.403Z,73.90
2018-09-05T16:21:38.635Z,75.30
2018-09-05T16:24:08.180Z,74.70
2018-09-05T16:26:37.379Z,74.70
2018-09-05T16:29:06.498Z,77.20
2018-09-05T16:31:36.576Z,78.50
2018-09-05T16:34:06.266Z,79.30
2018-09-05T16:36:35.614Z,80.00
2018-09-05T16:39:07.042Z,81.00
2018-09-05T16:41:36.327Z,82.40
2018-09-05T16:44:05.918Z,83.60
2018-09-05T16:46:35.079Z,84.30
2018-09-05T16:49:04.560Z,85.00
2018-09-05T16:51:33.821Z,85.50
2018-09-05T16:54:04.314Z,86.70
2018-09-05T16:56:34.594Z,87.80
2018-09-05T16:59:05.436Z,88.20
2018-09-05T17:01:34.562Z,89.10
2018-09-05T17:04:07.324Z,89.80
2018-09-05T17:06:36.625Z,90.20
2018-09-05T17:09:11.593Z,90.20
2018-09-05T17:11:41.002Z,90.60
2018-09-05T17:14:10.171Z,90.90
2018-09-05T17:16:39.293Z,91.30
2018-09-05T17:19:08.459Z,91.60
2018-09-05T17:21:40.297Z,91.60
2018-09-05T17:24:11.361Z,91.90
2018-09-05T17:26:40.583Z,92.10
2018-09-05T17:29:09.815Z,92.20
2018-09-05T17:31:38.958Z,92.50
2018-09-05T17:34:08.165Z,92.70
2018-09-05T17:36:38.660Z,93.30
2018-09-05T17:39:11.246Z,93.00
2018-09-05T17:41:40.974Z,93.10
2018-09-05T17:44:11.453Z,93.30
2018-09-05T17:46:40.582Z,93.80
2018-09-05T17:49:10.098Z,95.40
2018-09-05T17:51:39.277Z,95.90
2018-09-05T17:54:09.171Z,96.80
2018-09-05T17:56:39.127Z,97.20
2018-09-05T17:59:10.159Z,97.60
2018-09-05T18:01:42.329Z,99.20
2018-09-05T18:04:11.446Z,99.90
2018-09-05T18:06:41.568Z,99.90
2018-09-05T18:09:13.350Z,99.90
2018-09-05T18:11:44.386Z,99.90
2018-09-05T18:14:18.078Z,99.90
2018-09-05T18:16:47.364Z,99.90
2018-09-05T18:19:16.498Z,99.90
2018-09-05T18:21:45.618Z,99.90
2018-09-05T18:24:14.777Z,99.90
2018-09-05T18:26:43.912Z,99.90
2018-09-05T18:29:13.374Z,99.90
2018-09-05T18:31:42.610Z,99.90
2018-09-05T18:34:11.746Z,99.90
2018-09-05T18:36:41.066Z,99.90
2018-09-05T18:39:10.705Z,99.90
2018-09-05T18:41:39.976Z,99.90
2018-09-05T18:44:09.156Z,99.90
2018-09-05T18:46:38.555Z,99.90
2018-09-05T18:49:07.792Z,99.90
2018-09-05T18:51:36.907Z,99.90
2018-09-05T18:54:06.061Z,99.90
2018-09-05T18:56:35.306Z,99.90
2018-09-05T18:59:05.367Z,99.90
2018-09-05T19:01:35.275Z,99.90
2018-09-05T19:04:04.447Z,99.90
2018-09-05T19:06:38.732Z,99.90
2018-09-05T19:09:10.846Z,99.90
2018-09-05T19:11:40.257Z,99.90
2018-09-05T19:14:12.027Z,99.90
2018-09-05T19:16:43.883Z,99.90
2018-09-05T19:19:16.789Z,99.90
2018-09-05T19:21:48.370Z,99.90
2018-09-05T19:24:19.375Z,99.90
2018-09-05T19:26:56.155Z,99.90
2018-09-05T19:29:30.360Z,99.90
2018-09-05T19:32:00.981Z,99.90
2018-09-05T19:34:35.231Z,99.90
2018-09-05T19:37:09.545Z,99.90
2018-09-05T19:39:42.304Z,99.90
2018-09-05T19:42:12.946Z,99.90
2018-09-05T19:44:44.438Z,99.90
2018-09-05T19:47:16.918Z,99.90
2018-09-05T19:49:46.919Z,99.90
2018-09-05T19:52:16.353Z,99.90
2018-09-05T19:54:45.583Z,99.90
2018-09-05T19:57:14.737Z,99.90
2018-09-05T19:59:43.895Z,99.90
2018-09-05T20:02:15.621Z,99.90
2018-09-05T20:04:44.883Z,99.90
2018-09-05T20:07:14.721Z,99.90
2018-09-05T20:09:45.786Z,99.90
2018-09-05T20:12:19.393Z,99.90
2018-09-05T20:14:50.489Z,99.90
2018-09-05T20:17:21.743Z,99.90
2018-09-05T20:19:51.647Z,99.90
2018-09-05T20:22:20.773Z,99.90
2018-09-05T20:24:49.961Z,99.90
2018-09-05T20:27:19.226Z,99.90
2018-09-05T20:30:03.145Z,99.90
2018-09-05T20:32:32.485Z,99.90
2018-09-05T20:35:02.033Z,99.90
2018-09-05T20:37:31.182Z,99.90
2018-09-05T20:40:00.345Z,99.90
2018-09-05T20:42:29.503Z,99.90
2018-09-05T20:44:58.854Z,99.90
2018-09-05T20:47:27.974Z,99.90
2018-09-05T20:49:57.082Z,99.90
2018-09-05T20:52:26.251Z,99.90
2018-09-05T20:54:55.402Z,99.90
2018-09-05T20:57:24.526Z,99.90
2018-09-05T20:59:53.695Z,99.90
2018-09-05T21:02:22.861Z,99.90
2018-09-05T21:04:51.998Z,99.90
2018-09-05T21:07:21.627Z,99.90
2018-09-05T21:09:50.807Z,99.90
2018-09-05T21:12:20.011Z,99.90
2018-09-05T21:14:49.340Z,99.90
2018-09-05T21:17:30.589Z,99.90
2018-09-05T21:20:05.537Z,99.90
2018-09-05T21:22:34.214Z,99.90
2018-09-05T21:25:03.350Z,99.90
2018-09-05T21:27:32.854Z,99.90
2018-09-05T21:30:01.982Z,99.90
2018-09-05T21:32:31.140Z,99.90
2018-09-05T21:35:00.626Z,99.90
2018-09-05T21:37:29.763Z,99.90
2018-09-05T21:39:59.310Z,99.90
2018-09-05T21:42:28.431Z,99.90
2018-09-05T21:44:57.590Z,99.90
2018-09-05T21:47:26.719Z,99.90
2018-09-05T21:49:55.853Z,99.90
2018-09-05T21:52:24.961Z,99.90
2018-09-05T21:54:54.130Z,99.90
2018-09-05T21:57:23.971Z,99.90
2018-09-05T21:59:53.142Z,99.90
2018-09-05T22:02:22.342Z,99.90
2018-09-05T22:04:51.476Z,99.90
2018-09-05T22:07:20.677Z,99.90
2018-09-05T22:09:49.843Z,99.90
2018-09-05T22:12:19.070Z,99.90
2018-09-05T22:14:48.214Z,99.90
2018-09-05T22:17:17.461Z,99.90
2018-09-05T22:19:51.218Z,99.90
2018-09-05T22:22:20.349Z,99.90
2018-09-05T22:24:49.601Z,99.90
2018-09-05T22:27:18.885Z,99.90
2018-09-05T22:29:48.106Z,99.90
2018-09-05T22:32:17.891Z,99.90
2018-09-05T22:34:46.687Z,99.90
2018-09-05T22:37:15.806Z,99.90
2018-09-05T22:39:45.008Z,99.90
2018-09-05T22:42:14.218Z,99.90
2018-09-05T22:45:00.239Z,99.90
2018-09-05T22:47:50.730Z,99.90
2018-09-05T22:50:57.615Z,99.90
2018-09-05T22:54:19.492Z,99.90
2018-09-05T23:01:11.844Z,99.90
2018-09-05T23:04:33.692Z,99.90
2018-09-05T23:07:21.404Z,99.90
2018-09-05T23:10:07.669Z,99.90
2018-09-05T23:12:53.879Z,99.90
2018-09-05T23:15:40.011Z,99.90
2018-09-05T23:20:27.595Z,99.90
2018-09-05T23:23:13.638Z,99.90
2018-09-05T23:25:42.907Z,99.90
2018-09-05T23:28:12.250Z,99.90
2018-09-05T23:30:41.551Z,99.90
2018-09-05T23:33:10.792Z,99.90
2018-09-05T23:35:40.334Z,99.90
2018-09-05T23:38:09.631Z,99.90
2018-09-05T23:40:38.836Z,99.90
2018-09-05T23:43:07.992Z,99.90
2018-09-05T23:45:37.555Z,99.90
2018-09-05T23:48:06.700Z,99.90
2018-09-05T23:50:35.831Z,99.90
2018-09-05T23:53:04.947Z,99.90
2018-09-05T23:55:34.134Z,99.90
2018-09-05T23:58:03.987Z,99.90
